Terminal Aerodrome Forecast
Issued by NWS

Home | Current Version | Previous Version | Text Only | Print | Product List | Glossary Off
Versions: 1 2 3 4 5 6 7 8 9 10 11 12 13 14 15

486
FTUS43 KUNR 151120
TAFGCC
TAF
KGCC 151120Z 1512/1612 VRB05KT P6SM -SHRA OVC080
     FM151700 36009KT P6SM BKN060
      TEMPO 1517/1521 -TSRA BKN050CB=

USA.gov is the U.S. government's official web portal to all federal, state and local government web resources and services.